createdAt,value
2017-09-28T00:01:09.138Z,81.57
2017-09-28T00:03:38.209Z,88.83
2017-09-28T00:06:06.517Z,85.67
2017-09-28T00:08:35.593Z,79.53
2017-09-28T00:11:03.893Z,80.17
2017-09-28T00:13:32.302Z,90.93
2017-09-28T00:16:00.640Z,83.70
2017-09-28T00:18:29.716Z,93.40
2017-09-28T00:20:58.056Z,98.03
2017-09-28T00:23:26.369Z,86.63
2017-09-28T00:25:54.709Z,94.77
2017-09-28T00:28:23.012Z,88.43
2017-09-28T00:30:51.363Z,89.80
2017-09-28T00:33:19.672Z,82.50
2017-09-28T00:35:48.753Z,81.07
2017-09-28T00:38:17.068Z,69.60
2017-09-28T00:40:45.377Z,88.63
2017-09-28T00:43:13.769Z,81.50
2017-09-28T00:45:42.097Z,73.90
2017-09-28T00:48:11.192Z,73.00
2017-09-28T00:50:39.519Z,77.13
2017-09-28T00:53:07.834Z,73.63
2017-09-28T00:55:36.141Z,74.47
2017-09-28T00:58:05.221Z,83.43
2017-09-28T01:00:33.525Z,85.83
2017-09-28T01:03:02.614Z,84.47
2017-09-28T01:05:30.930Z,77.93
2017-09-28T01:07:59.225Z,86.60
2017-09-28T01:10:27.533Z,101.10
2017-09-28T01:12:56.614Z,85.63
2017-09-28T01:15:24.951Z,97.73
2017-09-28T01:17:53.265Z,92.80
2017-09-28T01:20:21.573Z,89.03
2017-09-28T01:22:50.653Z,103.60
2017-09-28T01:25:18.962Z,90.33
2017-09-28T01:27:47.293Z,97.60
2017-09-28T01:30:15.602Z,85.23
2017-09-28T01:32:44.674Z,89.80
2017-09-28T01:35:12.991Z,83.60
2017-09-28T01:37:41.302Z,78.23
2017-09-28T01:40:09.632Z,70.77
2017-09-28T01:42:38.697Z,72.93
2017-09-28T01:45:07.010Z,82.37
2017-09-28T01:47:35.317Z,79.33
2017-09-28T01:50:03.626Z,88.87
2017-09-28T01:52:31.965Z,79.33
2017-09-28T01:55:00.268Z,78.90
2017-09-28T01:57:28.584Z,79.70
2017-09-28T01:59:57.663Z,75.83
2017-09-28T02:02:26.750Z,78.37
2017-09-28T02:04:55.105Z,79.37
2017-09-28T02:07:23.410Z,74.57
2017-09-28T02:09:51.733Z,80.50
2017-09-28T02:12:20.050Z,85.33
2017-09-28T02:14:48.353Z,79.30
2017-09-28T02:17:17.448Z,82.10
2017-09-28T02:19:46.516Z,79.07
2017-09-28T02:22:14.822Z,83.17
2017-09-28T02:24:43.893Z,81.90
2017-09-28T02:27:12.193Z,80.57
2017-09-28T02:29:41.305Z,72.90
2017-09-28T02:32:09.627Z,75.27
2017-09-28T02:34:37.957Z,76.83
2017-09-28T02:37:07.039Z,70.10
2017-09-28T02:39:36.115Z,77.83
2017-09-28T02:42:04.440Z,73.87
2017-09-28T02:44:32.759Z,71.97
2017-09-28T02:47:01.834Z,74.33
2017-09-28T02:49:30.159Z,83.93
2017-09-28T02:51:59.241Z,75.97
2017-09-28T02:54:27.601Z,83.50
2017-09-28T02:56:55.922Z,86.80
2017-09-28T02:59:25.001Z,77.70
2017-09-28T03:01:53.329Z,90.07
2017-09-28T03:04:21.629Z,69.47
2017-09-28T03:06:49.951Z,73.73
2017-09-28T03:09:18.265Z,78.80
2017-09-28T03:11:46.578Z,76.67
2017-09-28T03:14:14.902Z,71.13
2017-09-28T03:16:43.200Z,70.97
2017-09-28T03:19:11.533Z,64.27
2017-09-28T03:21:40.613Z,57.90
2017-09-28T03:24:08.922Z,53.37
2017-09-28T03:26:37.267Z,59.60
2017-09-28T03:29:05.580Z,58.90
2017-09-28T03:31:33.926Z,52.70
2017-09-28T03:34:02.244Z,60.50
2017-09-28T03:36:30.559Z,60.67
2017-09-28T03:38:58.893Z,71.87
2017-09-28T03:41:27.204Z,63.00
2017-09-28T03:43:55.546Z,60.40
2017-09-28T03:46:23.850Z,67.17
2017-09-28T03:48:52.193Z,67.43
2017-09-28T03:51:20.523Z,64.63
2017-09-28T03:53:48.847Z,65.77
2017-09-28T03:56:17.244Z,65.93
2017-09-28T03:58:45.568Z,69.10
2017-09-28T04:01:13.892Z,77.47
2017-09-28T04:03:42.230Z,77.53
2017-09-28T04:06:10.545Z,76.97
2017-09-28T04:08:38.902Z,73.57
2017-09-28T04:11:07.980Z,75.97
2017-09-28T04:13:36.295Z,82.20
2017-09-28T04:16:04.627Z,82.20
2017-09-28T04:18:32.942Z,78.57
2017-09-28T04:21:01.287Z,70.77
2017-09-28T04:23:29.599Z,72.13
2017-09-28T04:25:57.919Z,67.67
2017-09-28T04:28:26.230Z,66.73
2017-09-28T04:30:54.552Z,75.37
2017-09-28T04:33:22.923Z,72.30
2017-09-28T04:35:51.291Z,64.63
2017-09-28T04:38:19.648Z,70.23
2017-09-28T04:40:48.812Z,78.23
2017-09-28T04:43:17.192Z,69.13
2017-09-28T04:45:45.538Z,76.47
2017-09-28T04:48:13.857Z,88.33
2017-09-28T04:50:42.171Z,83.23
2017-09-28T04:53:10.511Z,80.03
2017-09-28T04:55:38.821Z,101.97
2017-09-28T04:58:07.184Z,85.20
2017-09-28T05:00:36.257Z,84.43
2017-09-28T05:03:04.574Z,79.57
2017-09-28T05:05:33.663Z,85.07
2017-09-28T05:08:02.749Z,87.47
2017-09-28T05:10:31.082Z,93.77
2017-09-28T05:12:59.837Z,106.83
2017-09-28T05:15:28.146Z,109.63
2017-09-28T05:17:56.466Z,101.20
2017-09-28T05:20:24.799Z,105.60
2017-09-28T05:22:53.138Z,98.43
2017-09-28T05:25:22.212Z,120.43
2017-09-28T05:27:50.522Z,117.03
2017-09-28T05:30:18.851Z,104.87
2017-09-28T05:32:47.159Z,102.50
2017-09-28T05:35:16.258Z,124.37
2017-09-28T05:37:45.335Z,108.13
2017-09-28T05:40:13.683Z,107.27
2017-09-28T05:42:41.993Z,111.20
2017-09-28T05:45:10.318Z,123.20
2017-09-28T05:47:38.641Z,134.47
2017-09-28T05:50:06.954Z,121.50
2017-09-28T05:52:35.274Z,146.43
2017-09-28T05:55:03.586Z,136.40
2017-09-28T05:57:32.693Z,127.17
2017-09-28T06:00:01.780Z,129.23
2017-09-28T06:02:30.865Z,124.77
2017-09-28T06:04:59.190Z,144.63
2017-09-28T06:07:27.499Z,147.83
2017-09-28T06:09:55.839Z,140.23
2017-09-28T06:12:24.154Z,144.10
2017-09-28T06:14:52.473Z,163.40
2017-09-28T06:17:21.554Z,156.20
2017-09-28T06:19:50.669Z,172.73
2017-09-28T06:22:18.978Z,143.17
2017-09-28T06:24:47.297Z,111.93
2017-09-28T06:27:15.621Z,139.43
2017-09-28T06:29:43.927Z,145.43
2017-09-28T06:32:12.241Z,125.53
2017-09-28T06:34:41.323Z,185.30
2017-09-28T06:37:10.459Z,131.13
2017-09-28T06:39:38.783Z,125.07
2017-09-28T06:42:07.131Z,133.90
2017-09-28T06:44:35.445Z,145.83
2017-09-28T06:47:03.753Z,156.70
2017-09-28T06:49:32.838Z,143.60
2017-09-28T06:52:01.912Z,132.17
2017-09-28T06:54:30.235Z,120.60
2017-09-28T06:56:58.546Z,123.77
2017-09-28T06:59:26.864Z,128.03
2017-09-28T07:01:55.933Z,115.90
2017-09-28T07:04:24.281Z,124.27
2017-09-28T07:06:52.602Z,125.30
2017-09-28T07:09:20.919Z,142.73
2017-09-28T07:11:49.259Z,111.60
2017-09-28T07:14:17.584Z,121.97
2017-09-28T07:16:45.915Z,116.47
2017-09-28T07:19:14.265Z,145.77
2017-09-28T07:21:42.584Z,122.23
2017-09-28T07:24:11.670Z,107.93
2017-09-28T07:26:40.788Z,108.93
2017-09-28T07:29:09.101Z,110.70
2017-09-28T07:31:37.413Z,105.73
2017-09-28T07:34:05.737Z,112.73
2017-09-28T07:36:34.063Z,114.60
2017-09-28T07:39:02.382Z,105.93
2017-09-28T07:41:30.697Z,106.67
2017-09-28T07:43:59.022Z,107.47
2017-09-28T07:46:28.106Z,113.50
2017-09-28T07:48:57.209Z,114.53
2017-09-28T07:51:26.286Z,98.67
2017-09-28T07:53:54.606Z,107.90
2017-09-28T07:56:22.933Z,114.23
2017-09-28T07:58:51.248Z,108.03
2017-09-28T08:01:19.583Z,104.80
2017-09-28T08:03:47.897Z,101.93
2017-09-28T08:06:17.002Z,104.63
2017-09-28T08:08:45.342Z,97.03
2017-09-28T08:11:13.653Z,110.23
2017-09-28T08:13:41.969Z,114.23
2017-09-28T08:16:10.278Z,102.07
2017-09-28T08:18:38.605Z,98.27
2017-09-28T08:21:06.921Z,106.83
2017-09-28T08:23:35.266Z,115.63
2017-09-28T08:26:03.576Z,111.40
2017-09-28T08:28:31.896Z,108.30
2017-09-28T08:31:00.231Z,106.67
2017-09-28T08:33:28.549Z,103.77
2017-09-28T08:35:56.874Z,104.63
2017-09-28T08:38:25.190Z,96.07
2017-09-28T08:40:54.309Z,105.23
2017-09-28T08:43:22.617Z,102.70
2017-09-28T08:45:50.941Z,101.10
2017-09-28T08:48:20.040Z,111.53
2017-09-28T08:50:49.122Z,107.83
2017-09-28T08:53:17.449Z,101.37
2017-09-28T08:55:45.753Z,93.27
2017-09-28T08:58:14.098Z,107.50
2017-09-28T09:00:42.408Z,97.83
2017-09-28T09:03:10.729Z,105.37
2017-09-28T09:05:39.050Z,101.27
2017-09-28T09:08:07.362Z,114.33
2017-09-28T09:10:35.683Z,110.07
2017-09-28T09:13:03.999Z,109.07
2017-09-28T09:15:32.349Z,99.33
2017-09-28T09:18:00.667Z,94.30
2017-09-28T09:20:28.992Z,88.30
2017-09-28T09:22:57.331Z,107.77
2017-09-28T09:25:25.647Z,96.67
2017-09-28T09:27:53.974Z,98.57
2017-09-28T09:30:22.308Z,104.13
2017-09-28T09:32:50.663Z,114.43
2017-09-28T09:35:18.975Z,111.40
2017-09-28T09:37:47.285Z,101.63
2017-09-28T09:40:15.615Z,95.97
2017-09-28T09:42:43.925Z,103.67
2017-09-28T09:45:12.251Z,101.13
2017-09-28T09:47:40.579Z,115.07
2017-09-28T09:50:08.906Z,114.83
2017-09-28T09:52:37.230Z,103.57
2017-09-28T09:55:05.585Z,111.60
2017-09-28T09:57:33.897Z,114.27
2017-09-28T10:00:02.210Z,115.60
2017-09-28T10:02:30.546Z,109.77
2017-09-28T10:04:58.862Z,105.07
2017-09-28T10:07:45.278Z,104.23
2017-09-28T10:10:18.287Z,92.97
2017-09-28T10:12:52.309Z,86.80
2017-09-28T10:15:31.081Z,95.67
2017-09-28T10:18:00.171Z,99.87
2017-09-28T10:20:29.254Z,92.43
2017-09-28T10:22:57.603Z,111.20
2017-09-28T10:25:25.914Z,120.30
2017-09-28T10:27:54.217Z,114.17
2017-09-28T10:30:22.539Z,111.90
2017-09-28T10:32:50.849Z,105.80
2017-09-28T10:35:19.181Z,110.80
2017-09-28T10:37:47.495Z,109.70
2017-09-28T10:40:15.840Z,101.20
2017-09-28T10:42:44.171Z,99.87
2017-09-28T10:45:13.249Z,104.57
2017-09-28T10:47:41.569Z,102.30
2017-09-28T10:50:09.877Z,95.10
2017-09-28T10:52:38.194Z,97.73
2017-09-28T10:55:07.265Z,94.10
2017-09-28T10:57:35.594Z,90.20
2017-09-28T11:00:03.902Z,94.03
2017-09-28T11:02:32.215Z,84.33
2017-09-28T11:05:01.299Z,86.43
2017-09-28T11:07:29.620Z,79.03
2017-09-28T11:09:57.949Z,85.53
2017-09-28T11:12:26.261Z,75.47
2017-09-28T11:14:54.599Z,72.20
2017-09-28T11:17:22.910Z,73.43
2017-09-28T11:19:51.985Z,72.07
2017-09-28T11:22:20.301Z,72.50
2017-09-28T11:24:48.611Z,68.97
2017-09-28T11:27:16.959Z,74.37
2017-09-28T11:29:45.267Z,67.93
2017-09-28T11:32:13.573Z,64.13
2017-09-28T11:34:41.898Z,64.60
2017-09-28T11:37:10.215Z,66.30
2017-09-28T11:39:38.554Z,58.63
2017-09-28T11:42:06.866Z,59.50
2017-09-28T11:44:35.174Z,53.83
2017-09-28T11:47:04.275Z,59.23
2017-09-28T11:49:33.349Z,55.70
2017-09-28T11:52:01.701Z,55.47
2017-09-28T11:54:30.007Z,51.43
2017-09-28T11:56:59.090Z,55.03
2017-09-28T11:59:27.407Z,49.70
2017-09-28T12:01:55.717Z,51.57
2017-09-28T12:04:24.063Z,56.70
2017-09-28T12:06:52.378Z,58.00
2017-09-28T12:09:20.678Z,63.37
2017-09-28T12:11:49.007Z,51.60
2017-09-28T12:14:17.322Z,64.53
2017-09-28T12:16:45.663Z,57.50
2017-09-28T12:19:13.971Z,57.20
2017-09-28T12:21:42.290Z,62.47
2017-09-28T12:24:11.383Z,52.20
2017-09-28T12:26:40.459Z,55.47
2017-09-28T12:29:08.890Z,51.10
2017-09-28T12:31:37.199Z,46.30
2017-09-28T12:34:05.501Z,54.10
2017-09-28T12:36:33.824Z,49.70
2017-09-28T12:39:02.223Z,52.67
2017-09-28T12:41:30.545Z,51.80
2017-09-28T12:43:59.615Z,52.50
2017-09-28T12:46:27.972Z,47.93
2017-09-28T12:48:56.282Z,44.83
2017-09-28T12:51:24.595Z,43.63
2017-09-28T12:53:52.923Z,47.57
2017-09-28T12:56:21.249Z,42.87
2017-09-28T12:58:49.572Z,44.63
2017-09-28T13:01:17.873Z,45.03
2017-09-28T13:03:46.213Z,46.50
2017-09-28T13:06:14.529Z,53.27
2017-09-28T13:08:43.622Z,51.00
2017-09-28T13:11:12.716Z,55.97
2017-09-28T13:13:41.027Z,54.67
2017-09-28T13:16:09.370Z,53.63
2017-09-28T13:18:37.677Z,50.33
2017-09-28T13:21:06.002Z,57.87
2017-09-28T13:23:34.322Z,53.93
2017-09-28T13:26:03.396Z,55.10
2017-09-28T13:28:31.720Z,59.63
2017-09-28T13:31:00.028Z,56.00
2017-09-28T13:33:28.368Z,60.80
2017-09-28T13:35:56.676Z,57.13
2017-09-28T13:38:24.982Z,52.30
2017-09-28T13:40:53.303Z,55.67
2017-09-28T13:43:21.623Z,56.30
2017-09-28T13:45:49.942Z,60.80
2017-09-28T13:48:19.010Z,62.67
2017-09-28T13:50:47.356Z,59.80
2017-09-28T13:53:15.661Z,54.77
2017-09-28T13:55:43.981Z,54.00
2017-09-28T13:58:12.301Z,57.00
2017-09-28T14:00:40.621Z,55.53
2017-09-28T14:03:09.717Z,59.27
2017-09-28T14:05:38.793Z,56.50
2017-09-28T14:08:07.127Z,51.27
2017-09-28T14:10:35.466Z,54.10
2017-09-28T14:13:03.783Z,53.40
2017-09-28T14:15:32.110Z,63.40
2017-09-28T14:18:01.190Z,55.83
2017-09-28T14:20:29.515Z,59.73
2017-09-28T14:22:57.862Z,53.90
2017-09-28T14:25:26.969Z,56.30
2017-09-28T14:27:56.041Z,61.20
2017-09-28T14:30:24.374Z,48.40
2017-09-28T14:32:52.746Z,50.27
2017-09-28T14:35:21.051Z,65.07
2017-09-28T14:37:49.370Z,61.37
2017-09-28T14:40:18.450Z,58.33
2017-09-28T14:42:46.786Z,58.13
2017-09-28T14:45:15.094Z,67.67
2017-09-28T14:47:43.419Z,72.07
2017-09-28T14:50:11.737Z,68.80
2017-09-28T14:52:40.048Z,74.07
2017-09-28T14:55:09.129Z,65.73
2017-09-28T14:57:37.442Z,69.60
2017-09-28T15:00:05.786Z,71.10
2017-09-28T15:02:34.101Z,80.33
2017-09-28T15:05:02.406Z,84.20
2017-09-28T15:07:30.729Z,73.87
2017-09-28T15:09:59.815Z,82.60
2017-09-28T15:12:28.155Z,77.27
2017-09-28T15:14:56.478Z,69.60
2017-09-28T15:17:25.589Z,72.77
2017-09-28T15:19:53.894Z,86.47
2017-09-28T15:22:22.208Z,90.47
2017-09-28T15:24:50.533Z,81.50
2017-09-28T15:27:18.865Z,81.60
2017-09-28T15:29:47.201Z,92.23
2017-09-28T15:32:15.509Z,84.43
2017-09-28T15:34:43.819Z,78.77
2017-09-28T15:37:12.931Z,92.43
2017-09-28T15:39:41.239Z,81.70
2017-09-28T15:42:09.586Z,74.60
2017-09-28T15:44:37.888Z,81.63
2017-09-28T15:47:06.802Z,81.30
2017-09-28T15:49:35.126Z,73.07
2017-09-28T15:52:03.433Z,74.10
2017-09-28T15:54:31.774Z,75.40
2017-09-28T15:57:00.858Z,76.57
2017-09-28T15:59:29.937Z,75.03
2017-09-28T16:01:58.256Z,76.10
2017-09-28T16:04:26.589Z,82.53
2017-09-28T16:06:54.929Z,76.50
2017-09-28T16:09:23.246Z,68.47
2017-09-28T16:11:51.557Z,70.70
2017-09-28T16:14:20.657Z,66.33
2017-09-28T16:16:48.963Z,79.50
2017-09-28T16:19:17.306Z,74.83
2017-09-28T16:21:46.382Z,70.17
2017-09-28T16:24:14.703Z,75.23
2017-09-28T16:26:43.040Z,73.97
2017-09-28T16:29:12.114Z,73.17
2017-09-28T16:31:40.457Z,70.63
2017-09-28T16:34:08.771Z,73.00
2017-09-28T16:36:37.086Z,69.90
2017-09-28T16:39:05.426Z,80.77
2017-09-28T16:41:33.738Z,68.27
2017-09-28T16:44:02.860Z,75.80
2017-09-28T16:46:31.174Z,64.17
2017-09-28T16:48:59.489Z,75.00
2017-09-28T16:51:28.596Z,67.30
2017-09-28T16:53:56.902Z,82.53
2017-09-28T16:56:25.238Z,72.07
2017-09-28T16:58:54.322Z,70.73
2017-09-28T17:01:23.403Z,72.53
2017-09-28T17:03:51.723Z,70.70
2017-09-28T17:06:20.031Z,83.10
2017-09-28T17:08:48.377Z,72.17
2017-09-28T17:13:51.358Z,66.63
2017-09-28T17:16:20.436Z,75.53
2017-09-28T17:18:48.739Z,72.07
2017-09-28T17:21:17.075Z,70.07
2017-09-28T17:23:45.390Z,57.67
2017-09-28T17:26:14.497Z,57.73
2017-09-28T17:28:42.801Z,63.80
2017-09-28T17:31:11.113Z,65.37
2017-09-28T17:33:39.432Z,59.03
2017-09-28T17:36:07.741Z,76.07
2017-09-28T17:38:36.086Z,69.43
2017-09-28T17:41:04.478Z,78.50
2017-09-28T17:43:32.791Z,66.30
2017-09-28T17:46:01.106Z,63.73
2017-09-28T17:48:30.178Z,67.13
2017-09-28T17:50:58.514Z,67.33
2017-09-28T17:53:26.824Z,62.27
2017-09-28T17:55:55.139Z,73.10
2017-09-28T17:58:23.454Z,68.90
2017-09-28T18:00:51.774Z,67.73
2017-09-28T18:03:20.910Z,67.23
2017-09-28T18:05:49.226Z,71.37
2017-09-28T18:08:17.542Z,65.97
2017-09-28T18:10:46.634Z,62.27
2017-09-28T18:13:15.718Z,69.53
2017-09-28T18:15:44.834Z,73.10
2017-09-28T18:18:13.159Z,67.90
2017-09-28T18:20:42.286Z,70.13
2017-09-28T18:23:11.377Z,67.13
2017-09-28T18:25:39.690Z,78.43
2017-09-28T18:28:08.044Z,74.30
2017-09-28T18:30:37.130Z,80.93
2017-09-28T18:33:06.211Z,80.80
2017-09-28T18:35:34.546Z,80.03
2017-09-28T18:38:02.862Z,73.57
2017-09-28T18:40:31.207Z,70.27
2017-09-28T18:42:59.521Z,77.63
2017-09-28T18:45:27.874Z,69.70
2017-09-28T18:47:57.698Z,77.83
2017-09-28T18:50:26.014Z,75.70
2017-09-28T18:52:55.426Z,79.70
2017-09-28T18:55:24.501Z,70.27
2017-09-28T18:57:52.810Z,81.00
2017-09-28T19:00:21.155Z,95.17
2017-09-28T19:02:49.474Z,104.63
2017-09-28T19:05:17.821Z,111.60
2017-09-28T19:07:46.902Z,112.07
2017-09-28T19:10:15.222Z,100.90
2017-09-28T19:12:43.554Z,100.63
2017-09-28T19:15:11.874Z,92.77
2017-09-28T19:17:40.218Z,107.20
2017-09-28T19:20:09.307Z,100.53
2017-09-28T19:22:37.656Z,93.60
2017-09-28T19:25:05.970Z,96.53
2017-09-28T19:27:35.057Z,81.13
2017-09-28T19:30:03.414Z,92.87
2017-09-28T19:32:31.745Z,90.07
2017-09-28T19:35:00.092Z,81.93
2017-09-28T19:37:28.473Z,98.63
2017-09-28T19:39:56.786Z,93.50
2017-09-28T19:42:25.134Z,81.27
2017-09-28T19:44:54.257Z,84.83
2017-09-28T19:47:22.570Z,89.47
2017-09-28T19:49:50.885Z,79.73
2017-09-28T19:52:19.978Z,86.73
2017-09-28T19:54:48.320Z,86.90
2017-09-28T19:57:16.639Z,75.30
2017-09-28T19:59:45.720Z,76.87
2017-09-28T20:02:14.045Z,83.57
2017-09-28T20:04:42.363Z,73.53
2017-09-28T20:07:10.710Z,78.73
2017-09-28T20:09:39.026Z,76.60
2017-09-28T20:12:07.337Z,80.30
2017-09-28T20:14:35.663Z,79.17
2017-09-28T20:17:03.979Z,79.47
2017-09-28T20:19:33.094Z,75.17
2017-09-28T20:22:01.405Z,72.40
2017-09-28T20:24:29.722Z,89.30
2017-09-28T20:26:58.838Z,82.03
2017-09-28T20:29:27.155Z,82.93
2017-09-28T20:31:55.507Z,75.47
2017-09-28T20:34:23.822Z,83.70
2017-09-28T20:36:52.155Z,71.57
2017-09-28T20:39:20.487Z,84.83
2017-09-28T20:41:48.796Z,65.37
2017-09-28T20:44:17.895Z,74.37
2017-09-28T20:46:46.213Z,66.03
2017-09-28T20:49:14.545Z,76.60
2017-09-28T20:51:42.875Z,75.80
2017-09-28T20:54:11.177Z,71.60
2017-09-28T20:56:39.543Z,76.47
2017-09-28T20:59:07.849Z,74.60
2017-09-28T21:01:36.936Z,73.80
2017-09-28T21:04:05.259Z,68.80
2017-09-28T21:06:33.570Z,67.57
2017-09-28T21:09:01.926Z,79.50
2017-09-28T21:11:30.246Z,88.20
2017-09-28T21:13:58.554Z,73.23
2017-09-28T21:16:26.877Z,79.37
2017-09-28T21:18:55.183Z,87.83
2017-09-28T21:21:24.298Z,72.20
2017-09-28T21:23:52.606Z,78.10
2017-09-28T21:26:20.913Z,71.20
2017-09-28T21:28:49.234Z,69.30
2017-09-28T21:31:17.571Z,70.03
2017-09-28T21:33:45.916Z,81.60
2017-09-28T21:36:14.266Z,70.80
2017-09-28T21:38:42.569Z,79.77
2017-09-28T21:41:10.893Z,80.87
2017-09-28T21:43:39.209Z,71.93
2017-09-28T21:46:07.565Z,77.73
2017-09-28T21:48:36.643Z,75.17
2017-09-28T21:51:04.955Z,83.10
2017-09-28T21:53:33.281Z,71.03
2017-09-28T21:56:01.594Z,76.93
2017-09-28T21:58:30.710Z,76.53
2017-09-28T22:00:59.013Z,65.07
2017-09-28T22:03:27.342Z,82.97
2017-09-28T22:05:56.427Z,75.80
2017-09-28T22:08:25.556Z,82.47
2017-09-28T22:10:53.904Z,76.27
2017-09-28T22:13:22.987Z,72.80
2017-09-28T22:15:51.302Z,71.97
2017-09-28T22:18:19.637Z,79.93
2017-09-28T22:20:48.011Z,72.80
2017-09-28T22:23:16.374Z,81.13
2017-09-28T22:25:44.699Z,73.70
2017-09-28T22:28:13.789Z,70.83
2017-09-28T22:30:42.903Z,69.53
2017-09-28T22:33:11.209Z,76.07
2017-09-28T22:35:39.529Z,75.63
2017-09-28T22:38:08.633Z,66.00
2017-09-28T22:40:37.715Z,69.77
2017-09-28T22:43:06.815Z,76.43
2017-09-28T22:45:35.918Z,74.20
2017-09-28T22:48:05.037Z,81.40
2017-09-28T22:50:33.351Z,73.90
2017-09-28T22:53:01.671Z,68.67
2017-09-28T22:55:30.753Z,72.30
2017-09-28T22:57:59.838Z,72.50
2017-09-28T23:00:28.201Z,74.83
2017-09-28T23:02:56.513Z,72.13
2017-09-28T23:05:24.852Z,72.30
2017-09-28T23:07:53.942Z,70.33
2017-09-28T23:10:22.273Z,66.10
2017-09-28T23:12:51.398Z,62.53
2017-09-28T23:15:19.707Z,68.70
2017-09-28T23:17:48.026Z,66.40
2017-09-28T23:20:17.110Z,62.50
2017-09-28T23:22:46.212Z,66.40
2017-09-28T23:25:15.333Z,62.87
2017-09-28T23:27:43.721Z,67.07
2017-09-28T23:30:12.048Z,64.57
2017-09-28T23:32:40.365Z,61.13
2017-09-28T23:35:08.674Z,63.80
2017-09-28T23:37:37.020Z,55.30
2017-09-28T23:40:05.342Z,56.87
2017-09-28T23:42:33.650Z,59.53
2017-09-28T23:45:02.736Z,61.07
2017-09-28T23:47:31.045Z,59.00
2017-09-28T23:49:59.390Z,54.47
2017-09-28T23:52:27.703Z,54.23
2017-09-28T23:54:56.018Z,60.63
2017-09-28T23:57:24.374Z,57.77
2017-09-28T23:59:52.697Z,56.90
